sensor_id;sensor_type;location;lat;lon;timestamp;P1;durP1;ratioP1;P2;durP2;ratioP2
60979;SDS011;46851;49.160;8.980;2024-02-28T00:02:09;24.50;;;11.25;;
60979;SDS011;46851;49.160;8.980;2024-02-28T00:04:35;23.20;;;12.35;;
60979;SDS011;46851;49.160;8.980;2024-02-28T00:07:01;20.65;;;11.50;;
60979;SDS011;46851;49.160;8.980;2024-02-28T00:09:27;21.90;;;11.40;;
60979;SDS011;46851;49.160;8.980;2024-02-28T00:11:53;21.38;;;11.27;;
60979;SDS011;46851;49.160;8.980;2024-02-28T00:14:19;20.98;;;11.32;;
60979;SDS011;46851;49.160;8.980;2024-02-28T00:16:45;23.02;;;11.90;;
60979;SDS011;46851;49.160;8.980;2024-02-28T00:19:13;25.13;;;11.93;;
60979;SDS011;46851;49.160;8.980;2024-02-28T00:21:39;25.83;;;13.50;;
60979;SDS011;46851;49.160;8.980;2024-02-28T00:24:06;31.45;;;14.77;;
60979;SDS011;46851;49.160;8.980;2024-02-28T00:26:32;33.17;;;15.15;;
60979;SDS011;46851;49.160;8.980;2024-02-28T00:28:58;26.92;;;13.80;;
60979;SDS011;46851;49.160;8.980;2024-02-28T00:31:24;29.45;;;13.98;;
60979;SDS011;46851;49.160;8.980;2024-02-28T00:33:50;25.50;;;13.82;;
60979;SDS011;46851;49.160;8.980;2024-02-28T00:36:16;30.52;;;13.48;;
60979;SDS011;46851;49.160;8.980;2024-02-28T00:38:42;26.27;;;13.43;;
60979;SDS011;46851;49.160;8.980;2024-02-28T00:41:08;27.45;;;13.40;;
60979;SDS011;46851;49.160;8.980;2024-02-28T00:43:35;24.50;;;13.05;;
60979;SDS011;46851;49.160;8.980;2024-02-28T00:46:01;24.70;;;13.57;;
60979;SDS011;46851;49.160;8.980;2024-02-28T00:48:28;26.55;;;12.88;;
60979;SDS011;46851;49.160;8.980;2024-02-28T00:50:54;25.60;;;13.15;;
60979;SDS011;46851;49.160;8.980;2024-02-28T00:53:20;23.58;;;12.30;;
60979;SDS011;46851;49.160;8.980;2024-02-28T00:55:46;26.77;;;12.82;;
60979;SDS011;46851;49.160;8.980;2024-02-28T00:58:12;26.08;;;13.15;;
60979;SDS011;46851;49.160;8.980;2024-02-28T01:00:38;26.25;;;13.02;;
60979;SDS011;46851;49.160;8.980;2024-02-28T01:03:04;24.42;;;12.70;;
60979;SDS011;46851;49.160;8.980;2024-02-28T01:05:33;21.07;;;11.67;;
60979;SDS011;46851;49.160;8.980;2024-02-28T01:08:00;22.17;;;12.35;;
60979;SDS011;46851;49.160;8.980;2024-02-28T01:10:26;23.13;;;12.90;;
60979;SDS011;46851;49.160;8.980;2024-02-28T01:12:52;22.08;;;12.85;;
60979;SDS011;46851;49.160;8.980;2024-02-28T01:15:18;23.77;;;14.00;;
60979;SDS011;46851;49.160;8.980;2024-02-28T01:17:44;23.55;;;11.98;;
60979;SDS011;46851;49.160;8.980;2024-02-28T01:20:10;23.52;;;13.35;;
60979;SDS011;46851;49.160;8.980;2024-02-28T01:22:36;22.42;;;13.60;;
60979;SDS011;46851;49.160;8.980;2024-02-28T01:25:02;22.40;;;12.60;;
60979;SDS011;46851;49.160;8.980;2024-02-28T01:27:28;21.75;;;11.77;;
60979;SDS011;46851;49.160;8.980;2024-02-28T01:29:54;24.55;;;12.65;;
60979;SDS011;46851;49.160;8.980;2024-02-28T01:32:20;20.75;;;11.90;;
60979;SDS011;46851;49.160;8.980;2024-02-28T01:34:46;21.92;;;12.45;;
60979;SDS011;46851;49.160;8.980;2024-02-28T01:37:12;21.38;;;12.15;;
60979;SDS011;46851;49.160;8.980;2024-02-28T01:39:39;22.73;;;12.18;;
60979;SDS011;46851;49.160;8.980;2024-02-28T01:42:05;20.48;;;12.68;;
60979;SDS011;46851;49.160;8.980;2024-02-28T01:44:31;19.80;;;12.77;;
60979;SDS011;46851;49.160;8.980;2024-02-28T01:47:00;21.48;;;12.90;;
60979;SDS011;46851;49.160;8.980;2024-02-28T01:49:27;21.02;;;11.82;;
60979;SDS011;46851;49.160;8.980;2024-02-28T01:51:53;22.20;;;12.50;;
60979;SDS011;46851;49.160;8.980;2024-02-28T01:54:21;22.45;;;12.77;;
60979;SDS011;46851;49.160;8.980;2024-02-28T01:56:47;22.45;;;12.43;;
60979;SDS011;46851;49.160;8.980;2024-02-28T01:59:13;23.58;;;13.15;;
60979;SDS011;46851;49.160;8.980;2024-02-28T02:01:39;20.83;;;12.05;;
60979;SDS011;46851;49.160;8.980;2024-02-28T02:04:05;23.33;;;13.60;;
60979;SDS011;46851;49.160;8.980;2024-02-28T02:06:32;25.90;;;13.45;;
60979;SDS011;46851;49.160;8.980;2024-02-28T02:08:58;23.85;;;12.90;;
60979;SDS011;46851;49.160;8.980;2024-02-28T02:11:24;21.92;;;12.90;;
60979;SDS011;46851;49.160;8.980;2024-02-28T02:13:51;21.35;;;12.55;;
60979;SDS011;46851;49.160;8.980;2024-02-28T02:16:18;23.98;;;13.20;;
60979;SDS011;46851;49.160;8.980;2024-02-28T02:18:46;24.70;;;12.73;;
60979;SDS011;46851;49.160;8.980;2024-02-28T02:21:13;24.45;;;14.05;;
60979;SDS011;46851;49.160;8.980;2024-02-28T02:23:39;26.08;;;13.23;;
60979;SDS011;46851;49.160;8.980;2024-02-28T02:26:06;28.65;;;13.32;;
60979;SDS011;46851;49.160;8.980;2024-02-28T02:28:33;25.20;;;13.82;;
60979;SDS011;46851;49.160;8.980;2024-02-28T02:30:59;27.83;;;13.52;;
60979;SDS011;46851;49.160;8.980;2024-02-28T02:33:25;25.55;;;14.05;;
60979;SDS011;46851;49.160;8.980;2024-02-28T02:35:53;26.70;;;14.35;;
60979;SDS011;46851;49.160;8.980;2024-02-28T02:38:20;27.50;;;13.88;;
60979;SDS011;46851;49.160;8.980;2024-02-28T02:40:49;26.17;;;14.18;;
60979;SDS011;46851;49.160;8.980;2024-02-28T02:43:15;29.23;;;14.35;;
60979;SDS011;46851;49.160;8.980;2024-02-28T02:45:41;35.97;;;14.45;;
60979;SDS011;46851;49.160;8.980;2024-02-28T02:48:08;25.15;;;13.40;;
60979;SDS011;46851;49.160;8.980;2024-02-28T02:50:34;25.02;;;13.52;;
60979;SDS011;46851;49.160;8.980;2024-02-28T02:53:00;25.92;;;14.52;;
60979;SDS011;46851;49.160;8.980;2024-02-28T02:55:26;28.80;;;14.52;;
60979;SDS011;46851;49.160;8.980;2024-02-28T02:57:52;33.13;;;15.13;;
60979;SDS011;46851;49.160;8.980;2024-02-28T03:00:19;27.45;;;14.98;;
60979;SDS011;46851;49.160;8.980;2024-02-28T03:02:45;27.98;;;14.75;;
60979;SDS011;46851;49.160;8.980;2024-02-28T03:05:11;28.02;;;14.38;;
60979;SDS011;46851;49.160;8.980;2024-02-28T03:07:37;27.48;;;14.80;;
60979;SDS011;46851;49.160;8.980;2024-02-28T03:10:03;28.83;;;13.88;;
60979;SDS011;46851;49.160;8.980;2024-02-28T03:12:29;27.77;;;14.98;;
60979;SDS011;46851;49.160;8.980;2024-02-28T03:14:55;31.20;;;15.38;;
60979;SDS011;46851;49.160;8.980;2024-02-28T03:17:22;24.80;;;14.63;;
60979;SDS011;46851;49.160;8.980;2024-02-28T03:19:48;27.80;;;14.50;;
60979;SDS011;46851;49.160;8.980;2024-02-28T03:22:14;25.42;;;14.20;;
60979;SDS011;46851;49.160;8.980;2024-02-28T03:24:40;27.02;;;15.15;;
60979;SDS011;46851;49.160;8.980;2024-02-28T03:27:06;29.67;;;15.55;;
60979;SDS011;46851;49.160;8.980;2024-02-28T03:29:33;29.00;;;15.38;;
60979;SDS011;46851;49.160;8.980;2024-02-28T03:31:59;28.67;;;14.55;;
60979;SDS011;46851;49.160;8.980;2024-02-28T03:34:25;28.52;;;15.02;;
60979;SDS011;46851;49.160;8.980;2024-02-28T03:36:51;30.20;;;15.00;;
60979;SDS011;46851;49.160;8.980;2024-02-28T03:39:17;29.85;;;15.75;;
60979;SDS011;46851;49.160;8.980;2024-02-28T03:41:43;30.77;;;16.02;;
60979;SDS011;46851;49.160;8.980;2024-02-28T03:44:09;29.48;;;15.27;;
60979;SDS011;46851;49.160;8.980;2024-02-28T03:46:35;27.90;;;16.30;;
60979;SDS011;46851;49.160;8.980;2024-02-28T03:49:01;32.13;;;16.00;;
60979;SDS011;46851;49.160;8.980;2024-02-28T03:51:27;29.90;;;15.70;;
60979;SDS011;46851;49.160;8.980;2024-02-28T03:53:54;31.98;;;15.25;;
60979;SDS011;46851;49.160;8.980;2024-02-28T03:56:26;28.98;;;16.30;;
60979;SDS011;46851;49.160;8.980;2024-02-28T03:58:53;28.42;;;14.23;;
60979;SDS011;46851;49.160;8.980;2024-02-28T04:01:19;30.52;;;15.52;;
60979;SDS011;46851;49.160;8.980;2024-02-28T04:03:45;28.45;;;15.25;;
60979;SDS011;46851;49.160;8.980;2024-02-28T04:06:11;28.15;;;15.45;;
60979;SDS011;46851;49.160;8.980;2024-02-28T04:08:37;27.98;;;15.38;;
60979;SDS011;46851;49.160;8.980;2024-02-28T04:11:03;28.13;;;15.40;;
60979;SDS011;46851;49.160;8.980;2024-02-28T04:13:29;29.40;;;15.80;;
60979;SDS011;46851;49.160;8.980;2024-02-28T04:15:55;32.83;;;16.17;;
60979;SDS011;46851;49.160;8.980;2024-02-28T04:18:22;33.75;;;17.95;;
60979;SDS011;46851;49.160;8.980;2024-02-28T04:20:48;35.13;;;17.08;;
60979;SDS011;46851;49.160;8.980;2024-02-28T04:23:13;31.77;;;17.05;;
60979;SDS011;46851;49.160;8.980;2024-02-28T04:25:39;37.60;;;16.42;;
60979;SDS011;46851;49.160;8.980;2024-02-28T04:28:06;33.10;;;16.23;;
60979;SDS011;46851;49.160;8.980;2024-02-28T04:30:33;30.25;;;16.25;;
60979;SDS011;46851;49.160;8.980;2024-02-28T04:33:00;29.73;;;15.80;;
60979;SDS011;46851;49.160;8.980;2024-02-28T04:35:26;32.78;;;16.88;;
60979;SDS011;46851;49.160;8.980;2024-02-28T04:37:52;37.22;;;16.55;;
60979;SDS011;46851;49.160;8.980;2024-02-28T04:40:18;34.53;;;17.60;;
60979;SDS011;46851;49.160;8.980;2024-02-28T04:42:44;36.75;;;18.15;;
60979;SDS011;46851;49.160;8.980;2024-02-28T04:45:10;34.95;;;17.33;;
60979;SDS011;46851;49.160;8.980;2024-02-28T04:47:36;35.75;;;17.08;;
60979;SDS011;46851;49.160;8.980;2024-02-28T04:50:02;37.50;;;19.13;;
60979;SDS011;46851;49.160;8.980;2024-02-28T04:52:32;26.45;;;15.40;;
60979;SDS011;46851;49.160;8.980;2024-02-28T04:54:58;33.20;;;18.15;;
60979;SDS011;46851;49.160;8.980;2024-02-28T04:57:24;31.40;;;16.52;;
60979;SDS011;46851;49.160;8.980;2024-02-28T04:59:50;28.83;;;16.50;;
60979;SDS011;46851;49.160;8.980;2024-02-28T05:02:16;37.83;;;17.45;;
60979;SDS011;46851;49.160;8.980;2024-02-28T05:04:42;32.63;;;16.73;;
60979;SDS011;46851;49.160;8.980;2024-02-28T05:07:08;34.20;;;17.88;;
60979;SDS011;46851;49.160;8.980;2024-02-28T05:09:34;31.85;;;17.30;;
60979;SDS011;46851;49.160;8.980;2024-02-28T05:12:01;31.58;;;16.20;;
60979;SDS011;46851;49.160;8.980;2024-02-28T05:14:27;32.65;;;17.17;;
60979;SDS011;46851;49.160;8.980;2024-02-28T05:16:53;31.02;;;16.60;;
60979;SDS011;46851;49.160;8.980;2024-02-28T05:19:19;31.95;;;16.23;;
60979;SDS011;46851;49.160;8.980;2024-02-28T05:21:45;37.45;;;17.42;;
60979;SDS011;46851;49.160;8.980;2024-02-28T05:24:11;29.92;;;16.40;;
60979;SDS011;46851;49.160;8.980;2024-02-28T05:26:37;35.72;;;16.58;;
60979;SDS011;46851;49.160;8.980;2024-02-28T05:29:04;34.78;;;17.27;;
60979;SDS011;46851;49.160;8.980;2024-02-28T05:31:31;37.53;;;17.98;;
60979;SDS011;46851;49.160;8.980;2024-02-28T05:33:57;36.40;;;16.77;;
60979;SDS011;46851;49.160;8.980;2024-02-28T05:36:24;30.75;;;16.30;;
60979;SDS011;46851;49.160;8.980;2024-02-28T05:38:50;30.38;;;16.63;;
60979;SDS011;46851;49.160;8.980;2024-02-28T05:41:17;33.90;;;17.23;;
60979;SDS011;46851;49.160;8.980;2024-02-28T05:43:43;34.17;;;17.05;;
60979;SDS011;46851;49.160;8.980;2024-02-28T05:46:09;35.25;;;17.73;;
60979;SDS011;46851;49.160;8.980;2024-02-28T05:48:35;46.92;;;18.30;;
60979;SDS011;46851;49.160;8.980;2024-02-28T05:51:01;42.15;;;18.95;;
60979;SDS011;46851;49.160;8.980;2024-02-28T05:53:28;47.75;;;19.52;;
60979;SDS011;46851;49.160;8.980;2024-02-28T05:55:57;42.08;;;19.75;;
60979;SDS011;46851;49.160;8.980;2024-02-28T05:58:23;54.28;;;19.23;;
60979;SDS011;46851;49.160;8.980;2024-02-28T06:00:50;42.95;;;18.65;;
60979;SDS011;46851;49.160;8.980;2024-02-28T06:15:42;93.72;;;23.55;;
60979;SDS011;46851;49.160;8.980;2024-02-28T06:18:08;79.60;;;22.42;;
60979;SDS011;46851;49.160;8.980;2024-02-28T06:20:34;77.00;;;21.05;;
60979;SDS011;46851;49.160;8.980;2024-02-28T06:23:02;70.32;;;21.33;;
60979;SDS011;46851;49.160;8.980;2024-02-28T06:25:28;52.22;;;20.20;;
60979;SDS011;46851;49.160;8.980;2024-02-28T06:27:54;45.28;;;19.17;;
60979;SDS011;46851;49.160;8.980;2024-02-28T06:30:20;45.65;;;18.92;;
60979;SDS011;46851;49.160;8.980;2024-02-28T06:32:46;43.63;;;19.38;;
60979;SDS011;46851;49.160;8.980;2024-02-28T06:35:12;50.05;;;20.30;;
60979;SDS011;46851;49.160;8.980;2024-02-28T06:37:38;41.42;;;19.30;;
60979;SDS011;46851;49.160;8.980;2024-02-28T06:40:04;46.35;;;19.92;;
60979;SDS011;46851;49.160;8.980;2024-02-28T06:42:30;54.70;;;19.55;;
60979;SDS011;46851;49.160;8.980;2024-02-28T06:44:56;48.17;;;19.85;;
60979;SDS011;46851;49.160;8.980;2024-02-28T06:47:22;41.60;;;18.45;;
60979;SDS011;46851;49.160;8.980;2024-02-28T06:49:48;44.58;;;19.98;;
60979;SDS011;46851;49.160;8.980;2024-02-28T06:52:14;52.38;;;18.92;;
60979;SDS011;46851;49.160;8.980;2024-02-28T06:54:40;45.53;;;19.48;;
60979;SDS011;46851;49.160;8.980;2024-02-28T06:57:06;70.57;;;21.15;;
60979;SDS011;46851;49.160;8.980;2024-02-28T06:59:32;64.80;;;20.63;;
60979;SDS011;46851;49.160;8.980;2024-02-28T07:01:58;59.88;;;20.58;;
60979;SDS011;46851;49.160;8.980;2024-02-28T07:04:24;53.40;;;20.40;;
60979;SDS011;46851;49.160;8.980;2024-02-28T07:06:51;59.60;;;21.63;;
60979;SDS011;46851;49.160;8.980;2024-02-28T07:09:17;44.17;;;18.92;;
60979;SDS011;46851;49.160;8.980;2024-02-28T07:11:44;40.15;;;19.00;;
60979;SDS011;46851;49.160;8.980;2024-02-28T07:14:10;39.30;;;17.45;;
60979;SDS011;46851;49.160;8.980;2024-02-28T07:16:36;40.65;;;20.67;;
60979;SDS011;46851;49.160;8.980;2024-02-28T07:19:02;37.92;;;18.55;;
60979;SDS011;46851;49.160;8.980;2024-02-28T07:21:28;46.65;;;19.05;;
60979;SDS011;46851;49.160;8.980;2024-02-28T07:23:55;36.65;;;17.08;;
60979;SDS011;46851;49.160;8.980;2024-02-28T07:26:21;43.92;;;17.98;;
60979;SDS011;46851;49.160;8.980;2024-02-28T07:28:47;47.25;;;19.50;;
60979;SDS011;46851;49.160;8.980;2024-02-28T07:31:20;37.40;;;17.30;;
60979;SDS011;46851;49.160;8.980;2024-02-28T07:33:47;48.05;;;19.15;;
60979;SDS011;46851;49.160;8.980;2024-02-28T07:36:13;39.58;;;18.23;;
60979;SDS011;46851;49.160;8.980;2024-02-28T07:38:41;38.78;;;17.73;;
60979;SDS011;46851;49.160;8.980;2024-02-28T07:41:07;36.03;;;17.85;;
60979;SDS011;46851;49.160;8.980;2024-02-28T07:43:33;48.55;;;20.33;;
60979;SDS011;46851;49.160;8.980;2024-02-28T07:46:06;37.95;;;17.55;;
60979;SDS011;46851;49.160;8.980;2024-02-28T07:50:58;42.30;;;18.30;;
60979;SDS011;46851;49.160;8.980;2024-02-28T07:53:25;39.38;;;17.33;;
60979;SDS011;46851;49.160;8.980;2024-02-28T07:55:51;31.92;;;15.70;;
60979;SDS011;46851;49.160;8.980;2024-02-28T07:58:18;36.60;;;16.73;;
60979;SDS011;46851;49.160;8.980;2024-02-28T08:00:44;42.45;;;17.48;;
60979;SDS011;46851;49.160;8.980;2024-02-28T08:03:10;33.97;;;17.83;;
60979;SDS011;46851;49.160;8.980;2024-02-28T08:05:36;39.45;;;18.08;;
60979;SDS011;46851;49.160;8.980;2024-02-28T08:08:07;40.00;;;16.45;;
60979;SDS011;46851;49.160;8.980;2024-02-28T08:10:33;39.45;;;18.35;;
60979;SDS011;46851;49.160;8.980;2024-02-28T08:13:00;41.65;;;15.82;;
60979;SDS011;46851;49.160;8.980;2024-02-28T08:15:26;40.85;;;17.45;;
60979;SDS011;46851;49.160;8.980;2024-02-28T08:17:52;48.28;;;17.58;;
60979;SDS011;46851;49.160;8.980;2024-02-28T08:20:19;43.60;;;16.63;;
60979;SDS011;46851;49.160;8.980;2024-02-28T08:22:45;40.22;;;17.80;;
60979;SDS011;46851;49.160;8.980;2024-02-28T08:25:11;32.38;;;15.60;;
60979;SDS011;46851;49.160;8.980;2024-02-28T08:27:37;39.92;;;16.95;;
60979;SDS011;46851;49.160;8.980;2024-02-28T08:30:04;35.97;;;16.40;;
60979;SDS011;46851;49.160;8.980;2024-02-28T08:41:08;39.80;;;16.88;;
60979;SDS011;46851;49.160;8.980;2024-02-28T08:43:37;46.83;;;17.23;;
60979;SDS011;46851;49.160;8.980;2024-02-28T08:46:03;47.22;;;16.92;;
60979;SDS011;46851;49.160;8.980;2024-02-28T08:48:29;39.70;;;15.57;;
60979;SDS011;46851;49.160;8.980;2024-02-28T08:50:55;52.20;;;17.92;;
60979;SDS011;46851;49.160;8.980;2024-02-28T08:53:21;45.70;;;17.33;;
60979;SDS011;46851;49.160;8.980;2024-02-28T08:55:47;49.58;;;16.10;;
60979;SDS011;46851;49.160;8.980;2024-02-28T08:58:14;38.53;;;16.08;;
60979;SDS011;46851;49.160;8.980;2024-02-28T09:00:40;52.50;;;16.30;;
60979;SDS011;46851;49.160;8.980;2024-02-28T09:03:06;42.80;;;17.33;;
60979;SDS011;46851;49.160;8.980;2024-02-28T09:05:32;46.58;;;17.13;;
60979;SDS011;46851;49.160;8.980;2024-02-28T09:07:58;36.58;;;16.48;;
60979;SDS011;46851;49.160;8.980;2024-02-28T09:10:24;41.80;;;17.75;;
60979;SDS011;46851;49.160;8.980;2024-02-28T09:12:50;32.55;;;16.42;;
60979;SDS011;46851;49.160;8.980;2024-02-28T09:15:16;32.10;;;16.00;;
60979;SDS011;46851;49.160;8.980;2024-02-28T09:17:43;33.40;;;15.43;;
60979;SDS011;46851;49.160;8.980;2024-02-28T09:20:09;31.45;;;15.00;;
60979;SDS011;46851;49.160;8.980;2024-02-28T09:22:35;32.65;;;15.18;;
60979;SDS011;46851;49.160;8.980;2024-02-28T09:25:01;30.95;;;14.65;;
60979;SDS011;46851;49.160;8.980;2024-02-28T09:27:30;28.77;;;14.68;;
60979;SDS011;46851;49.160;8.980;2024-02-28T09:29:56;30.17;;;14.63;;
60979;SDS011;46851;49.160;8.980;2024-02-28T09:32:22;31.55;;;14.68;;
60979;SDS011;46851;49.160;8.980;2024-02-28T09:34:48;35.20;;;15.52;;
60979;SDS011;46851;49.160;8.980;2024-02-28T09:37:14;36.88;;;16.58;;
60979;SDS011;46851;49.160;8.980;2024-02-28T09:39:42;35.70;;;17.05;;
60979;SDS011;46851;49.160;8.980;2024-02-28T09:42:08;47.53;;;17.25;;
60979;SDS011;46851;49.160;8.980;2024-02-28T09:53:44;35.10;;;15.95;;
60979;SDS011;46851;49.160;8.980;2024-02-28T09:56:10;42.95;;;16.60;;
60979;SDS011;46851;49.160;8.980;2024-02-28T09:58:36;31.45;;;15.20;;
60979;SDS011;46851;49.160;8.980;2024-02-28T10:01:03;34.55;;;16.10;;
60979;SDS011;46851;49.160;8.980;2024-02-28T10:03:30;31.02;;;15.30;;
60979;SDS011;46851;49.160;8.980;2024-02-28T10:05:57;35.20;;;17.10;;
60979;SDS011;46851;49.160;8.980;2024-02-28T10:08:23;36.03;;;15.38;;
60979;SDS011;46851;49.160;8.980;2024-02-28T10:10:49;32.58;;;16.27;;
60979;SDS011;46851;49.160;8.980;2024-02-28T10:13:21;31.15;;;15.00;;
60979;SDS011;46851;49.160;8.980;2024-02-28T10:15:50;31.05;;;15.32;;
60979;SDS011;46851;49.160;8.980;2024-02-28T10:18:16;35.40;;;15.37;;
60979;SDS011;46851;49.160;8.980;2024-02-28T10:20:42;30.60;;;15.50;;
60979;SDS011;46851;49.160;8.980;2024-02-28T10:23:08;37.42;;;16.17;;
60979;SDS011;46851;49.160;8.980;2024-02-28T10:25:44;35.85;;;16.13;;
60979;SDS011;46851;49.160;8.980;2024-02-28T10:28:10;29.02;;;14.82;;
60979;SDS011;46851;49.160;8.980;2024-02-28T10:30:43;28.65;;;14.95;;
60979;SDS011;46851;49.160;8.980;2024-02-28T10:33:15;30.20;;;13.50;;
60979;SDS011;46851;49.160;8.980;2024-02-28T10:35:42;25.98;;;13.65;;
60979;SDS011;46851;49.160;8.980;2024-02-28T10:38:11;31.23;;;15.15;;
60979;SDS011;46851;49.160;8.980;2024-02-28T10:40:41;27.90;;;14.20;;
60979;SDS011;46851;49.160;8.980;2024-02-28T10:43:10;25.57;;;13.80;;
60979;SDS011;46851;49.160;8.980;2024-02-28T10:45:36;26.45;;;13.90;;
60979;SDS011;46851;49.160;8.980;2024-02-28T10:48:03;26.13;;;14.77;;
60979;SDS011;46851;49.160;8.980;2024-02-28T10:50:29;35.17;;;13.82;;
60979;SDS011;46851;49.160;8.980;2024-02-28T10:52:57;23.55;;;13.07;;
60979;SDS011;46851;49.160;8.980;2024-02-28T10:55:26;19.95;;;11.65;;
60979;SDS011;46851;49.160;8.980;2024-02-28T10:57:55;22.10;;;11.93;;
60979;SDS011;46851;49.160;8.980;2024-02-28T11:00:22;19.43;;;11.47;;
60979;SDS011;46851;49.160;8.980;2024-02-28T11:02:49;19.95;;;11.52;;
60979;SDS011;46851;49.160;8.980;2024-02-28T11:05:15;20.35;;;11.13;;
60979;SDS011;46851;49.160;8.980;2024-02-28T11:07:41;23.58;;;11.68;;
60979;SDS011;46851;49.160;8.980;2024-02-28T11:10:08;21.92;;;11.90;;
60979;SDS011;46851;49.160;8.980;2024-02-28T11:12:35;19.98;;;11.65;;
60979;SDS011;46851;49.160;8.980;2024-02-28T11:15:03;19.10;;;10.32;;
60979;SDS011;46851;49.160;8.980;2024-02-28T11:17:34;20.13;;;11.30;;
60979;SDS011;46851;49.160;8.980;2024-02-28T11:20:10;20.55;;;10.93;;
60979;SDS011;46851;49.160;8.980;2024-02-28T11:22:36;19.40;;;9.80;;
60979;SDS011;46851;49.160;8.980;2024-02-28T11:25:02;18.98;;;9.40;;
60979;SDS011;46851;49.160;8.980;2024-02-28T11:27:30;15.13;;;9.52;;
60979;SDS011;46851;49.160;8.980;2024-02-28T11:29:56;14.25;;;7.85;;
60979;SDS011;46851;49.160;8.980;2024-02-28T11:32:24;15.10;;;6.97;;
60979;SDS011;46851;49.160;8.980;2024-02-28T11:34:50;10.63;;;6.55;;
60979;SDS011;46851;49.160;8.980;2024-02-28T11:37:17;11.07;;;6.82;;
60979;SDS011;46851;49.160;8.980;2024-02-28T11:39:47;9.57;;;6.10;;
60979;SDS011;46851;49.160;8.980;2024-02-28T11:42:14;11.52;;;6.97;;
60979;SDS011;46851;49.160;8.980;2024-02-28T11:44:40;11.63;;;6.82;;
60979;SDS011;46851;49.160;8.980;2024-02-28T11:47:09;11.07;;;6.65;;
60979;SDS011;46851;49.160;8.980;2024-02-28T11:49:36;9.05;;;5.88;;
60979;SDS011;46851;49.160;8.980;2024-02-28T11:52:02;10.15;;;6.07;;
60979;SDS011;46851;49.160;8.980;2024-02-28T11:54:29;9.38;;;6.18;;
60979;SDS011;46851;49.160;8.980;2024-02-28T11:56:55;9.55;;;5.88;;
60979;SDS011;46851;49.160;8.980;2024-02-28T11:59:21;8.77;;;5.55;;
60979;SDS011;46851;49.160;8.980;2024-02-28T12:01:47;9.52;;;6.38;;
60979;SDS011;46851;49.160;8.980;2024-02-28T12:04:13;12.55;;;7.40;;
60979;SDS011;46851;49.160;8.980;2024-02-28T12:06:39;13.27;;;7.55;;
60979;SDS011;46851;49.160;8.980;2024-02-28T12:09:15;10.75;;;7.18;;
60979;SDS011;46851;49.160;8.980;2024-02-28T12:11:41;13.18;;;7.25;;
60979;SDS011;46851;49.160;8.980;2024-02-28T12:14:07;12.25;;;7.32;;
60979;SDS011;46851;49.160;8.980;2024-02-28T12:16:37;11.45;;;6.88;;
60979;SDS011;46851;49.160;8.980;2024-02-28T12:19:04;14.20;;;6.53;;
60979;SDS011;46851;49.160;8.980;2024-02-28T12:21:30;15.88;;;7.65;;
60979;SDS011;46851;49.160;8.980;2024-02-28T12:23:56;12.13;;;7.28;;
60979;SDS011;46851;49.160;8.980;2024-02-28T12:26:23;12.45;;;6.78;;
60979;SDS011;46851;49.160;8.980;2024-02-28T12:28:48;11.65;;;6.95;;
60979;SDS011;46851;49.160;8.980;2024-02-28T12:31:14;14.95;;;7.22;;
60979;SDS011;46851;49.160;8.980;2024-02-28T12:33:41;12.25;;;6.85;;
60979;SDS011;46851;49.160;8.980;2024-02-28T12:36:07;12.30;;;6.97;;
60979;SDS011;46851;49.160;8.980;2024-02-28T12:38:33;12.57;;;6.65;;
60979;SDS011;46851;49.160;8.980;2024-02-28T12:40:59;12.75;;;6.97;;
60979;SDS011;46851;49.160;8.980;2024-02-28T12:43:26;14.30;;;7.20;;
60979;SDS011;46851;49.160;8.980;2024-02-28T12:45:52;12.15;;;6.90;;
60979;SDS011;46851;49.160;8.980;2024-02-28T12:48:18;10.77;;;6.57;;
60979;SDS011;46851;49.160;8.980;2024-02-28T12:50:44;11.95;;;7.40;;
60979;SDS011;46851;49.160;8.980;2024-02-28T12:53:10;12.93;;;6.63;;
60979;SDS011;46851;49.160;8.980;2024-02-28T12:55:36;11.93;;;6.55;;
60979;SDS011;46851;49.160;8.980;2024-02-28T12:58:02;10.60;;;7.00;;
60979;SDS011;46851;49.160;8.980;2024-02-28T13:00:31;13.05;;;6.55;;
60979;SDS011;46851;49.160;8.980;2024-02-28T13:02:57;11.32;;;6.55;;
60979;SDS011;46851;49.160;8.980;2024-02-28T13:05:23;11.75;;;7.38;;
60979;SDS011;46851;49.160;8.980;2024-02-28T13:07:50;10.25;;;6.28;;
60979;SDS011;46851;49.160;8.980;2024-02-28T13:10:17;15.15;;;7.57;;
60979;SDS011;46851;49.160;8.980;2024-02-28T13:12:43;14.10;;;7.88;;
60979;SDS011;46851;49.160;8.980;2024-02-28T13:15:09;14.23;;;6.85;;
60979;SDS011;46851;49.160;8.980;2024-02-28T13:17:35;12.60;;;7.28;;
60979;SDS011;46851;49.160;8.980;2024-02-28T13:20:01;14.35;;;7.78;;
60979;SDS011;46851;49.160;8.980;2024-02-28T13:22:28;11.25;;;6.97;;
60979;SDS011;46851;49.160;8.980;2024-02-28T13:24:54;11.80;;;7.32;;
60979;SDS011;46851;49.160;8.980;2024-02-28T13:27:20;11.55;;;7.18;;
60979;SDS011;46851;49.160;8.980;2024-02-28T13:29:46;12.38;;;7.03;;
60979;SDS011;46851;49.160;8.980;2024-02-28T13:32:12;11.48;;;6.43;;
60979;SDS011;46851;49.160;8.980;2024-02-28T13:34:39;17.08;;;8.48;;
60979;SDS011;46851;49.160;8.980;2024-02-28T13:37:05;15.23;;;7.82;;
60979;SDS011;46851;49.160;8.980;2024-02-28T13:39:31;12.60;;;6.70;;
60979;SDS011;46851;49.160;8.980;2024-02-28T13:41:57;13.85;;;7.30;;
60979;SDS011;46851;49.160;8.980;2024-02-28T13:44:24;12.20;;;7.38;;
60979;SDS011;46851;49.160;8.980;2024-02-28T13:46:50;15.82;;;8.77;;
60979;SDS011;46851;49.160;8.980;2024-02-28T13:49:17;15.27;;;8.18;;
60979;SDS011;46851;49.160;8.980;2024-02-28T13:51:45;15.00;;;8.73;;
60979;SDS011;46851;49.160;8.980;2024-02-28T13:54:14;13.50;;;8.07;;
60979;SDS011;46851;49.160;8.980;2024-02-28T13:56:40;13.45;;;7.25;;
60979;SDS011;46851;49.160;8.980;2024-02-28T13:59:06;12.50;;;6.88;;
60979;SDS011;46851;49.160;8.980;2024-02-28T14:01:32;14.07;;;7.32;;
60979;SDS011;46851;49.160;8.980;2024-02-28T14:03:58;13.20;;;7.82;;
60979;SDS011;46851;49.160;8.980;2024-02-28T14:06:24;12.60;;;7.90;;
60979;SDS011;46851;49.160;8.980;2024-02-28T14:08:50;12.90;;;7.22;;
60979;SDS011;46851;49.160;8.980;2024-02-28T14:11:18;12.75;;;7.13;;
60979;SDS011;46851;49.160;8.980;2024-02-28T14:13:44;10.77;;;6.07;;
60979;SDS011;46851;49.160;8.980;2024-02-28T14:16:10;13.80;;;6.80;;
60979;SDS011;46851;49.160;8.980;2024-02-28T14:18:36;14.30;;;6.88;;
60979;SDS011;46851;49.160;8.980;2024-02-28T14:21:03;13.82;;;7.20;;
60979;SDS011;46851;49.160;8.980;2024-02-28T14:23:29;14.32;;;7.45;;
60979;SDS011;46851;49.160;8.980;2024-02-28T14:25:55;15.40;;;8.18;;
60979;SDS011;46851;49.160;8.980;2024-02-28T14:28:22;13.55;;;6.47;;
60979;SDS011;46851;49.160;8.980;2024-02-28T14:30:48;11.55;;;6.88;;
60979;SDS011;46851;49.160;8.980;2024-02-28T14:33:14;10.93;;;6.78;;
60979;SDS011;46851;49.160;8.980;2024-02-28T14:35:40;15.57;;;7.63;;
60979;SDS011;46851;49.160;8.980;2024-02-28T14:38:07;15.05;;;7.55;;
60979;SDS011;46851;49.160;8.980;2024-02-28T14:40:33;16.17;;;7.15;;
60979;SDS011;46851;49.160;8.980;2024-02-28T14:42:59;16.92;;;7.20;;
60979;SDS011;46851;49.160;8.980;2024-02-28T14:45:25;14.40;;;8.27;;
60979;SDS011;46851;49.160;8.980;2024-02-28T14:47:53;15.38;;;7.35;;
60979;SDS011;46851;49.160;8.980;2024-02-28T14:50:19;15.10;;;7.18;;
60979;SDS011;46851;49.160;8.980;2024-02-28T14:52:45;12.10;;;6.72;;
60979;SDS011;46851;49.160;8.980;2024-02-28T14:55:12;14.73;;;7.20;;